Time;durP1;ratioP1;P1;durP2;ratioP2;P2;SDS_P1;SDS_P2;PMS_P1;PMS_P2;Temp;Humidity;BMP_temperature;BMP_pressure;BME280_temperature;BME280_humidity;BME280_pressure;Samples;Min_cycle;Max_cycle;Signal;HPM_P1;HPM_P2
2021/12/29 00:00:27;;;;;;;163.20;76.53;;;128.40;2252.80;;;;;;6191230;23;20056;-87
2021/12/29 00:02:59;;;;;;;180.52;94.70;;;128.30;2252.80;;;;;;6191065;23;20009;-85
2021/12/29 00:05:27;;;;;;;205.23;100.20;;;128.40;2252.80;;;;;;6191611;23;20005;-86
2021/12/29 00:11:14;;;;;;;119.50;49.97;;;128.40;2252.80;;;;;;6162344;23;20020;-80
2021/12/29 00:13:40;;;;;;;158.52;66.65;;;128.30;2252.80;;;;;;6190659;23;20004;-82
2021/12/29 00:16:43;;;;;;;165.70;90.22;;;128.20;2252.80;;;;;;6191170;23;20000;-83
2021/12/29 00:19:09;;;;;;;125.82;60.67;;;128.30;2252.80;;;;;;6190873;23;20083;-85
2021/12/29 00:21:37;;;;;;;112.45;52.67;;;128.30;2252.80;;;;;;6191469;23;20031;-83
2021/12/29 00:24:05;;;;;;;123.05;63.63;;;128.30;2252.80;;;;;;6191302;23;20415;-84
2021/12/29 00:26:32;;;;;;;114.43;55.45;;;128.40;2252.80;;;;;;6191023;23;20307;-84
2021/12/29 00:28:59;;;;;;;226.70;68.68;;;128.30;2252.80;;;;;;6191188;23;19993;-84
2021/12/29 00:31:30;;;;;;;137.23;62.33;;;128.10;2252.80;;;;;;6191000;23;20040;-84
2021/12/29 00:33:57;;;;;;;151.13;53.65;;;128.00;2252.80;;;;;;6191023;23;19996;-85
2021/12/29 00:36:23;;;;;;;261.15;71.80;;;128.20;2252.80;;;;;;6191164;23;20011;-84
2021/12/29 00:38:49;;;;;;;169.50;60.65;;;128.10;2252.80;;;;;;6191476;23;19996;-85
2021/12/29 00:41:15;;;;;;;156.07;54.28;;;103.30;2227.20;;;;;;6190859;23;20007;-83
2021/12/29 00:43:41;;;;;;;154.93;62.50;;;103.20;2227.20;;;;;;6191193;23;20035;-84
2021/12/29 00:46:08;;;;;;;169.32;52.92;;;128.00;2252.80;;;;;;6191052;23;20307;-84
2021/12/29 00:48:38;;;;;;;173.93;55.88;;;128.20;2252.80;;;;;;6190720;23;19993;-84
2021/12/29 00:51:05;;;;;;;252.38;62.92;;;128.30;2252.80;;;;;;6191024;23;20001;-85
2021/12/29 00:53:31;;;;;;;160.45;57.05;;;128.10;2252.80;;;;;;6190725;23;19993;-85
2021/12/29 00:55:57;;;;;;;130.55;54.42;;;128.20;2252.80;;;;;;6190794;23;19992;-83
2021/12/29 00:58:22;;;;;;;133.20;59.65;;;128.40;2252.80;;;;;;6190769;23;20006;-83
2021/12/29 01:00:48;;;;;;;114.32;50.70;;;128.50;2252.80;;;;;;6190838;23;20411;-85
2021/12/29 01:03:14;;;;;;;120.28;51.05;;;128.40;2252.80;;;;;;6190906;23;19997;-82
2021/12/29 01:05:40;;;;;;;121.90;52.65;;;128.30;2252.80;;;;;;6190803;23;20028;-85
2021/12/29 01:08:07;;;;;;;96.75;47.00;;;128.30;2252.80;;;;;;6215578;23;20003;-85
2021/12/29 01:10:34;;;;;;;137.90;46.63;;;128.30;2252.80;;;;;;6190872;23;20013;-86
2021/12/29 01:13:02;;;;;;;105.13;45.42;;;128.20;2252.80;;;;;;6190792;23;19997;-85
2021/12/29 01:15:33;;;;;;;78.10;37.17;;;128.20;2252.80;;;;;;6190827;23;20523;-84
2021/12/29 01:18:02;;;;;;;75.55;35.63;;;128.20;2252.80;;;;;;6191049;23;20015;-83
2021/12/29 01:20:29;;;;;;;71.18;34.95;;;128.10;2252.80;;;;;;6190848;23;20004;-86
2021/12/29 01:22:58;;;;;;;80.07;37.20;;;128.10;2252.80;;;;;;6190595;23;20399;-83
2021/12/29 01:25:24;;;;;;;79.38;29.08;;;128.00;2252.80;;;;;;6190814;23;20000;-85
2021/12/29 01:27:50;;;;;;;75.32;29.83;;;103.30;2227.20;;;;;;6190735;23;20025;-84
2021/12/29 01:30:17;;;;;;;102.55;44.78;;;128.00;2252.80;;;;;;6189925;23;20005;-84
2021/12/29 01:32:43;;;;;;;96.90;47.88;;;103.30;2227.20;;;;;;6190821;23;20001;-85
2021/12/29 01:35:11;;;;;;;95.22;48.40;;;103.30;2227.20;;;;;;6190887;23;19996;-85
2021/12/29 01:37:37;;;;;;;91.43;37.47;;;128.00;2252.80;;;;;;6190402;23;20027;-85
2021/12/29 01:40:10;;;;;;;79.38;31.63;;;103.30;2227.20;;;;;;6190809;23;19997;-85
2021/12/29 01:42:36;;;;;;;89.45;30.23;;;103.30;2227.20;;;;;;6190668;23;20004;-84
2021/12/29 01:45:03;;;;;;;131.60;37.97;;;103.30;2227.20;;;;;;6190602;23;20001;-84
2021/12/29 01:47:31;;;;;;;131.30;39.00;;;103.30;2227.20;;;;;;6215444;23;20433;-84
2021/12/29 01:50:00;;;;;;;90.60;33.40;;;103.10;2227.20;;;;;;6190386;23;19992;-85
2021/12/29 01:52:31;;;;;;;83.32;37.55;;;103.20;2227.20;;;;;;6190767;23;20024;-85
2021/12/29 01:54:57;;;;;;;71.13;33.08;;;103.20;2227.20;;;;;;6190479;23;20017;-84
2021/12/29 01:57:23;;;;;;;115.60;43.15;;;103.20;2227.20;;;;;;6190361;23;20066;-84
2021/12/29 01:59:49;;;;;;;96.32;39.53;;;103.20;2227.20;;;;;;6190589;23;20047;-84
2021/12/29 02:02:15;;;;;;;140.27;44.42;;;103.20;2227.20;;;;;;6190374;23;19997;-83
2021/12/29 02:04:43;;;;;;;113.30;38.40;;;103.20;2227.20;;;;;;6190252;23;19997;-84
2021/12/29 02:07:08;;;;;;;95.93;41.03;;;103.10;2227.20;;;;;;6190252;23;19997;-83
2021/12/29 02:09:35;;;;;;;89.40;41.67;;;103.10;2227.20;;;;;;6216680;23;19988;-84
2021/12/29 02:12:01;;;;;;;108.30;43.05;;;103.20;2227.20;;;;;;6190274;23;20407;-85
2021/12/29 02:14:27;;;;;;;144.32;66.65;;;103.30;2227.20;;;;;;6190356;23;19993;-86
2021/12/29 02:16:53;;;;;;;93.40;37.58;;;103.20;2227.20;;;;;;6190353;23;20010;-85
2021/12/29 02:19:19;;;;;;;114.57;54.88;;;103.20;2227.20;;;;;;6189960;23;20083;-83
2021/12/29 02:21:54;;;;;;;106.47;50.67;;;103.20;2227.20;;;;;;6190320;23;20001;-83
2021/12/29 02:24:23;;;;;;;144.15;42.08;;;103.20;2227.20;;;;;;6190415;23;19996;-85
2021/12/29 02:26:51;;;;;;;74.57;39.00;;;103.20;2227.20;;;;;;6190188;23;19993;-85
2021/12/29 02:29:18;;;;;;;71.57;34.72;;;103.20;2227.20;;;;;;6190326;23;20003;-84
2021/12/29 02:31:46;;;;;;;82.72;30.88;;;128.00;2252.80;;;;;;6216600;23;20007;-84
2021/12/29 02:34:15;;;;;;;71.10;28.40;;;103.30;2227.20;;;;;;6190167;23;20000;-84
2021/12/29 02:36:45;;;;;;;90.03;32.30;;;103.30;2227.20;;;;;;6190522;23;19996;-84
2021/12/29 02:39:20;;;;;;;99.95;41.75;;;103.30;2227.20;;;;;;6189919;23;20046;-83
2021/12/29 02:41:52;;;;;;;74.60;33.10;;;103.30;2227.20;;;;;;6190269;23;20017;-84
2021/12/29 02:44:28;;;;;;;76.85;32.50;;;103.30;2227.20;;;;;;6190607;23;20031;-85
2021/12/29 02:46:56;;;;;;;77.40;33.20;;;103.20;2227.20;;;;;;6189906;23;19997;-83
2021/12/29 02:49:22;;;;;;;85.03;36.72;;;103.20;2227.20;;;;;;6190170;23;20107;-85
2021/12/29 02:51:48;;;;;;;75.45;31.83;;;103.10;2227.20;;;;;;6190454;23;20062;-85
2021/12/29 02:54:16;;;;;;;127.30;39.65;;;103.20;2227.20;;;;;;6189695;23;20342;-84
2021/12/29 02:56:43;;;;;;;67.45;28.88;;;103.20;2227.20;;;;;;6190111;23;20084;-85
2021/12/29 02:59:09;;;;;;;101.38;33.78;;;103.10;2227.20;;;;;;6190159;23;20489;-84
2021/12/29 03:01:34;;;;;;;118.55;35.72;;;103.30;2227.20;;;;;;6190133;23;20083;-85
2021/12/29 03:04:05;;;;;;;113.60;37.08;;;103.20;2227.20;;;;;;6189934;23;20035;-84
2021/12/29 03:06:31;;;;;;;85.22;34.65;;;103.20;2227.20;;;;;;6216782;23;19997;-84
2021/12/29 03:08:57;;;;;;;92.50;32.42;;;103.20;2227.20;;;;;;6189901;23;20016;-85
2021/12/29 03:11:23;;;;;;;112.28;33.08;;;103.30;2227.20;;;;;;6189899;23;20000;-84
2021/12/29 03:13:49;;;;;;;82.95;28.73;;;103.30;2227.20;;;;;;6189933;23;19992;-82
2021/12/29 03:16:14;;;;;;;147.63;34.60;;;103.30;2227.20;;;;;;6190037;23;20028;-83
2021/12/29 03:18:42;;;;;;;114.35;29.67;;;103.20;2227.20;;;;;;6190003;23;20004;-84
2021/12/29 03:21:08;;;;;;;104.70;30.38;;;103.20;2227.20;;;;;;6189772;23;20007;-83
2021/12/29 03:23:34;;;;;;;93.25;29.45;;;103.10;2227.20;;;;;;6190050;23;20000;-84
2021/12/29 03:26:01;;;;;;;79.07;29.05;;;103.10;2227.20;;;;;;6218539;23;20108;-84
2021/12/29 03:28:27;;;;;;;75.38;29.85;;;103.10;2227.20;;;;;;6191718;23;20055;-84
2021/12/29 03:30:56;;;;;;;132.38;59.85;;;103.30;2227.20;;;;;;6191695;23;20422;-84
2021/12/29 03:33:24;;;;;;;107.65;47.30;;;103.20;2227.20;;;;;;6218371;23;19996;-83
2021/12/29 03:35:53;;;;;;;89.20;37.58;;;103.20;2227.20;;;;;;6191696;23;20001;-83
2021/12/29 03:38:22;;;;;;;77.85;32.83;;;103.30;2227.20;;;;;;6191870;23;20005;-83
2021/12/29 03:40:50;;;;;;;77.55;31.48;;;103.30;2227.20;;;;;;6191612;23;20005;-84
2021/12/29 03:43:17;;;;;;;59.28;26.13;;;103.20;2227.20;;;;;;6191574;23;19999;-85
2021/12/29 03:45:45;;;;;;;58.80;26.58;;;103.20;2227.20;;;;;;6191909;23;19997;-84
2021/12/29 03:48:12;;;;;;;52.10;24.55;;;103.20;2227.20;;;;;;6191613;23;20001;-84
2021/12/29 03:50:39;;;;;;;54.22;23.75;;;103.30;2227.20;;;;;;6191442;23;20005;-84
2021/12/29 03:53:05;;;;;;;49.92;25.00;;;103.30;2227.20;;;;;;6191548;23;20003;-85
2021/12/29 03:55:31;;;;;;;48.33;24.20;;;103.30;2227.20;;;;;;6191379;23;20013;-83
2021/12/29 03:57:58;;;;;;;43.72;24.10;;;103.20;2227.20;;;;;;6191496;23;19993;-84
2021/12/29 04:00:24;;;;;;;41.03;23.05;;;103.20;2227.20;;;;;;6192279;23;20296;-84
2021/12/29 04:02:49;;;;;;;39.55;23.40;;;103.30;2227.20;;;;;;6210167;23;19996;-84
2021/12/29 04:05:22;;;;;;;34.60;20.08;;;128.00;2252.80;;;;;;6219193;23;19985;-83
2021/12/29 04:07:50;;;;;;;36.78;19.27;;;128.10;2252.80;;;;;;6200375;23;20001;-86
2021/12/29 04:10:16;;;;;;;32.38;19.88;;;128.20;2252.80;;;;;;6192358;23;20016;-85
2021/12/29 04:12:42;;;;;;;31.05;20.33;;;128.20;2252.80;;;;;;6192639;23;20001;-83
2021/12/29 04:15:10;;;;;;;32.75;19.13;;;128.20;2252.80;;;;;;6191935;23;19996;-83
2021/12/29 04:17:38;;;;;;;32.65;19.05;;;128.20;2252.80;;;;;;6191093;23;20438;-84
2021/12/29 04:22:57;;;;;;;32.10;18.77;;;128.30;2252.80;;;;;;6217859;23;20314;-84
2021/12/29 04:25:24;;;;;;;31.63;18.98;;;128.40;2252.80;;;;;;6191346;23;20001;-85
2021/12/29 04:27:57;;;;;;;32.47;19.30;;;128.40;2252.80;;;;;;6191437;23;20108;-84
2021/12/29 04:30:25;;;;;;;31.50;17.33;;;128.20;2252.80;;;;;;6191163;23;20004;-83
2021/12/29 04:32:53;;;;;;;31.50;18.50;;;128.10;2252.80;;;;;;6191382;23;20000;-85
2021/12/29 04:35:20;;;;;;;33.53;20.50;;;128.10;2252.80;;;;;;6191238;23;19996;-84
2021/12/29 04:37:46;;;;;;;37.70;22.38;;;128.20;2252.80;;;;;;6190963;23;20090;-83
2021/12/29 04:40:13;;;;;;;42.33;23.58;;;128.20;2252.80;;;;;;6191045;23;20004;-85
2021/12/29 04:42:38;;;;;;;45.35;23.67;;;128.30;2252.80;;;;;;6191267;23;20027;-85
2021/12/29 04:45:05;;;;;;;42.80;25.23;;;128.20;2252.80;;;;;;6191046;23;19997;-83
2021/12/29 04:47:32;;;;;;;46.63;25.60;;;128.30;2252.80;;;;;;6190797;23;20001;-85
2021/12/29 04:50:01;;;;;;;51.05;25.33;;;128.20;2252.80;;;;;;6166548;23;20506;-84
2021/12/29 04:52:29;;;;;;;59.83;26.17;;;128.30;2252.80;;;;;;6166588;23;20311;-84
2021/12/29 04:54:55;;;;;;;60.45;29.02;;;128.20;2252.80;;;;;;6165959;23;20489;-82
2021/12/29 04:57:21;;;;;;;61.63;27.45;;;128.20;2252.80;;;;;;6191144;23;20082;-83
2021/12/29 04:59:46;;;;;;;68.35;30.83;;;128.20;2252.80;;;;;;6190623;23;20310;-83
2021/12/29 05:02:12;;;;;;;77.95;32.42;;;128.20;2252.80;;;;;;6191163;23;19997;-82
2021/12/29 05:04:56;;;;;;;104.60;32.47;;;128.20;2252.80;;;;;;6190970;23;20009;-83
2021/12/29 05:10:07;;;;;;;93.70;32.83;;;128.20;2252.80;;;;;;6217206;23;20055;-85
2021/12/29 05:12:32;;;;;;;98.68;33.20;;;103.10;2227.20;;;;;;6190737;23;20087;-82
2021/12/29 05:14:59;;;;;;;102.10;35.58;;;128.20;2252.80;;;;;;6217211;23;20043;-83
2021/12/29 05:17:24;;;;;;;74.28;31.63;;;128.20;2252.80;;;;;;6190699;23;20004;-86
2021/12/29 05:19:50;;;;;;;84.53;33.17;;;128.30;2252.80;;;;;;6190722;23;20075;-83
2021/12/29 05:22:16;;;;;;;83.35;32.00;;;128.30;2252.80;;;;;;6190678;23;20005;-84
2021/12/29 05:24:42;;;;;;;75.95;31.83;;;128.40;2252.80;;;;;;6190674;23;20001;-83
2021/12/29 05:27:08;;;;;;;92.05;33.67;;;128.40;2252.80;;;;;;6190358;23;20411;-83
2021/12/29 05:29:34;;;;;;;86.63;31.65;;;128.30;2252.80;;;;;;6190631;23;20008;-84
2021/12/29 05:32:00;;;;;;;83.90;30.67;;;128.40;2252.80;;;;;;6190380;23;20005;-85
2021/12/29 05:34:25;;;;;;;75.93;31.13;;;128.30;2252.80;;;;;;6190364;23;19993;-85
2021/12/29 05:36:51;;;;;;;80.47;30.88;;;128.30;2252.80;;;;;;6215920;23;19997;-84
2021/12/29 05:39:17;;;;;;;64.32;28.60;;;128.40;2252.80;;;;;;6190591;23;20023;-84
2021/12/29 05:41:43;;;;;;;64.43;27.75;;;128.40;2252.80;;;;;;6190416;23;20001;-83
2021/12/29 05:44:09;;;;;;;67.35;28.10;;;128.40;2252.80;;;;;;6190472;23;19997;-82
2021/12/29 05:46:35;;;;;;;66.78;29.23;;;128.40;2252.80;;;;;;6217030;23;19996;-84
2021/12/29 05:49:01;;;;;;;83.35;31.48;;;128.40;2252.80;;;;;;6216482;23;20000;-84
2021/12/29 05:51:27;;;;;;;74.75;29.40;;;128.40;2252.80;;;;;;6190680;23;20480;-84
2021/12/29 05:53:52;;;;;;;105.25;32.78;;;128.30;2252.80;;;;;;6216832;23;20008;-83
2021/12/29 05:56:18;;;;;;;93.40;33.08;;;128.30;2252.80;;;;;;6190349;23;20003;-83
2021/12/29 05:58:44;;;;;;;82.35;30.95;;;128.20;2252.80;;;;;;6190454;23;20378;-83
2021/12/29 06:01:10;;;;;;;73.55;29.58;;;128.30;2252.80;;;;;;6190213;23;20062;-84
2021/12/29 06:03:39;;;;;;;68.78;31.70;;;128.30;2252.80;;;;;;6190376;23;20001;-85
2021/12/29 06:06:06;;;;;;;75.72;33.17;;;128.50;2252.80;;;;;;6190481;23;20091;-82
2021/12/29 06:08:32;;;;;;;61.22;30.65;;;128.50;2252.80;;;;;;6190354;23;20001;-84
2021/12/29 06:10:58;;;;;;;99.57;35.30;;;128.40;2252.80;;;;;;6190022;23;20415;-83
2021/12/29 06:13:23;;;;;;;71.95;29.35;;;128.40;2252.80;;;;;;6190391;23;20035;-85
2021/12/29 06:15:49;;;;;;;78.60;33.13;;;128.30;2252.80;;;;;;6190422;23;20008;-83
2021/12/29 06:18:15;;;;;;;99.47;36.30;;;128.30;2252.80;;;;;;6190024;23;19997;-84
2021/12/29 06:20:41;;;;;;;92.65;43.17;;;128.20;2252.80;;;;;;6190080;23;20001;-83
2021/12/29 06:23:08;;;;;;;67.45;29.17;;;128.20;2252.80;;;;;;6190341;23;20003;-83
2021/12/29 06:25:34;;;;;;;78.15;35.67;;;128.30;2252.80;;;;;;6190372;23;20005;-84
2021/12/29 06:28:00;;;;;;;139.57;57.78;;;128.30;2252.80;;;;;;6190468;23;20008;-84
2021/12/29 06:30:26;;;;;;;141.07;52.30;;;128.20;2252.80;;;;;;6189847;23;20347;-84
2021/12/29 06:32:52;;;;;;;171.40;53.03;;;128.10;2252.80;;;;;;6190199;23;20028;-84
2021/12/29 06:35:18;;;;;;;101.68;40.15;;;128.10;2252.80;;;;;;6190291;23;19997;-84
2021/12/29 06:37:44;;;;;;;102.20;42.60;;;128.00;2252.80;;;;;;6214966;23;19997;-84
2021/12/29 06:40:11;;;;;;;163.43;48.05;;;128.30;2252.80;;;;;;6190336;23;20001;-84
2021/12/29 06:42:37;;;;;;;131.00;53.95;;;128.00;2252.80;;;;;;6190743;23;19997;-83
2021/12/29 06:45:03;;;;;;;122.40;60.22;;;128.10;2252.80;;;;;;6189914;23;19989;-84
2021/12/29 06:47:31;;;;;;;113.93;59.13;;;128.20;2252.80;;;;;;6190135;23;20076;-85
2021/12/29 06:49:57;;;;;;;137.48;73.20;;;128.20;2252.80;;;;;;6165213;23;20088;-83
2021/12/29 06:52:24;;;;;;;151.27;79.53;;;103.30;2227.20;;;;;;6165484;23;20058;-84
2021/12/29 06:54:50;;;;;;;143.70;76.78;;;128.40;2252.80;;;;;;6189504;23;20017;-85
2021/12/29 06:57:16;;;;;;;137.25;68.82;;;128.90;2252.80;;;;;;6190188;23;20050;-83
2021/12/29 06:59:42;;;;;;;172.88;87.53;;;128.50;2252.80;;;;;;6191099;23;20043;-85
2021/12/29 07:02:10;;;;;;;144.73;79.68;;;128.40;2252.80;;;;;;6192208;23;20476;-84
2021/12/29 07:04:36;;;;;;;137.13;74.35;;;128.40;2252.80;;;;;;6191996;23;20004;-82
2021/12/29 07:07:02;;;;;;;159.13;93.82;;;128.40;2252.80;;;;;;6191901;23;20425;-83
2021/12/29 07:09:28;;;;;;;141.50;72.22;;;128.90;2252.80;;;;;;6191845;23;19997;-84
2021/12/29 07:11:54;;;;;;;113.15;64.53;;;128.40;2252.80;;;;;;6191471;23;20066;-80
2021/12/29 07:14:21;;;;;;;137.02;74.13;;;128.50;2252.80;;;;;;6192079;23;19992;-83
2021/12/29 07:16:48;;;;;;;160.20;87.85;;;128.50;2252.80;;;;;;6191927;23;20001;-83
2021/12/29 07:19:16;;;;;;;151.98;77.25;;;128.50;2252.80;;;;;;6191658;23;20000;-85
2021/12/29 07:21:42;;;;;;;132.20;67.13;;;128.40;2252.80;;;;;;6191918;23;20091;-85
2021/12/29 07:24:08;;;;;;;135.18;69.20;;;128.40;2252.80;;;;;;6166992;23;20005;-85
2021/12/29 07:26:34;;;;;;;121.15;68.60;;;128.40;2252.80;;;;;;6191668;23;20126;-83
2021/12/29 07:29:00;;;;;;;98.55;57.80;;;128.40;2252.80;;;;;;6191822;23;20288;-83
2021/12/29 07:31:27;;;;;;;117.32;63.03;;;128.20;2252.80;;;;;;6191554;23;20015;-82
2021/12/29 07:33:54;;;;;;;117.05;66.60;;;128.30;2252.80;;;;;;6191313;23;20001;-84
2021/12/29 07:36:21;;;;;;;106.82;64.80;;;128.20;2252.80;;;;;;6191750;23;20000;-85
2021/12/29 07:38:47;;;;;;;102.88;55.95;;;128.20;2252.80;;;;;;6191733;23;19997;-84
2021/12/29 07:41:13;;;;;;;98.32;63.42;;;128.10;2252.80;;;;;;6191297;23;20000;-84
2021/12/29 07:43:40;;;;;;;125.78;84.30;;;128.20;2252.80;;;;;;6191657;23;20051;-84
2021/12/29 07:46:06;;;;;;;119.05;81.88;;;128.20;2252.80;;;;;;6191650;23;20001;-83
2021/12/29 07:48:34;;;;;;;111.10;76.63;;;128.30;2252.80;;;;;;6191624;23;20012;-84
2021/12/29 07:51:03;;;;;;;98.05;61.10;;;128.40;2252.80;;;;;;6191368;23;20005;-83
2021/12/29 07:53:30;;;;;;;103.43;56.08;;;128.20;2252.80;;;;;;6191327;23;20011;-83
2021/12/29 07:55:56;;;;;;;104.85;63.67;;;128.10;2252.80;;;;;;6191242;23;20001;-83
2021/12/29 07:58:22;;;;;;;137.73;81.60;;;128.10;2252.80;;;;;;6217982;23;20086;-83
2021/12/29 08:00:49;;;;;;;125.75;77.47;;;128.10;2252.80;;;;;;6218098;23;20484;-85
2021/12/29 08:03:16;;;;;;;118.78;84.60;;;128.20;2252.80;;;;;;6191076;23;20000;-84
2021/12/29 08:05:44;;;;;;;112.32;69.70;;;128.40;2252.80;;;;;;6191549;23;20306;-84
2021/12/29 08:08:10;;;;;;;156.77;102.05;;;128.40;2252.80;;;;;;6217598;23;19988;-83
2021/12/29 08:10:39;;;;;;;244.45;125.68;;;128.40;2252.80;;;;;;6217491;23;20005;-82
2021/12/29 08:13:06;;;;;;;234.13;123.07;;;128.50;2252.80;;;;;;6166086;23;20000;-82
2021/12/29 08:15:34;;;;;;;297.55;154.52;;;128.60;2252.80;;;;;;6217479;23;19996;-83
2021/12/29 08:18:02;;;;;;;246.50;135.95;;;128.70;2252.80;;;;;;6166435;23;20024;-83
2021/12/29 08:20:29;;;;;;;159.13;93.93;;;128.70;2252.80;;;;;;6191442;23;20091;-84
2021/12/29 08:22:55;;;;;;;165.45;91.03;;;128.80;2252.80;;;;;;6190995;23;20084;-83
2021/12/29 08:25:21;;;;;;;263.15;149.88;;;128.90;2252.80;;;;;;6217842;23;20020;-83
2021/12/29 08:27:47;;;;;;;171.65;113.30;;;128.90;2252.80;;;;;;6191464;23;19992;-85
2021/12/29 08:30:14;;;;;;;146.75;93.30;;;128.90;2252.80;;;;;;6191014;23;20081;-82
2021/12/29 08:32:40;;;;;;;141.68;87.30;;;128.90;2252.80;;;;;;6190885;23;20054;-83
2021/12/29 08:35:06;;;;;;;122.28;72.00;;;128.90;2252.80;;;;;;6191081;23;20411;-82
2021/12/29 08:37:33;;;;;;;121.80;80.47;;;128.80;2252.80;;;;;;6190980;23;20000;-85
2021/12/29 08:39:59;;;;;;;116.75;76.45;;;128.90;2252.80;;;;;;6191642;23;20074;-83
2021/12/29 08:42:25;;;;;;;115.93;76.55;;;128.90;2252.80;;;;;;6191564;23;20001;-85
2021/12/29 08:44:50;;;;;;;111.22;72.30;;;153.60;2252.80;;;;;;6191167;23;20024;-84
2021/12/29 08:47:16;;;;;;;110.53;74.53;;;128.90;2252.80;;;;;;6191368;23;20075;-85
2021/12/29 08:49:42;;;;;;;102.22;71.18;;;128.80;2252.80;;;;;;6190708;23;19999;-83
2021/12/29 08:52:08;;;;;;;90.28;61.35;;;128.90;2252.80;;;;;;6190710;23;20005;-82
2021/12/29 08:54:34;;;;;;;83.10;59.67;;;153.60;2252.80;;;;;;6217016;23;20019;-83
2021/12/29 08:57:02;;;;;;;106.10;75.93;;;128.90;2252.80;;;;;;6217175;23;19997;-82
2021/12/29 08:59:28;;;;;;;101.93;70.55;;;128.90;2252.80;;;;;;6166589;23;20003;-82
2021/12/29 09:01:54;;;;;;;119.57;89.07;;;153.60;2252.80;;;;;;6190990;23;20001;-83
2021/12/29 09:04:20;;;;;;;124.43;89.18;;;128.90;2252.80;;;;;;6190038;23;20023;-83
2021/12/29 09:06:46;;;;;;;138.02;95.55;;;153.60;2252.80;;;;;;6190914;23;20299;-84
2021/12/29 09:09:12;;;;;;;184.13;120.68;;;153.70;2252.80;;;;;;6191010;23;20403;-82
2021/12/29 09:11:39;;;;;;;157.38;104.80;;;153.80;2252.80;;;;;;6217241;23;20000;-83
2021/12/29 09:14:05;;;;;;;132.68;87.32;;;153.80;2252.80;;;;;;6190646;23;19996;-82
2021/12/29 09:16:31;;;;;;;153.80;101.57;;;153.80;2252.80;;;;;;6190917;23;20004;-84
2021/12/29 09:18:57;;;;;;;148.85;102.65;;;154.20;2252.80;;;;;;6190903;23;20477;-83
2021/12/29 09:21:26;;;;;;;148.02;93.00;;;154.00;2252.80;;;;;;6190286;23;20190;-83
2021/12/29 09:23:52;;;;;;;117.72;76.47;;;153.90;2252.80;;;;;;6203449;23;20001;-80
2021/12/29 09:26:17;;;;;;;103.00;70.15;;;153.90;2252.80;;;;;;6216657;23;20012;-83
2021/12/29 09:28:45;;;;;;;118.40;85.70;;;154.00;2252.80;;;;;;6191458;23;20046;-85
2021/12/29 09:31:13;;;;;;;131.35;91.40;;;154.00;2252.80;;;;;;6217519;23;20008;-82
2021/12/29 09:33:40;;;;;;;119.95;88.40;;;154.00;2252.80;;;;;;6191054;23;20000;-84
2021/12/29 09:36:06;;;;;;;108.50;80.03;;;154.00;2252.80;;;;;;6190576;23;20075;-82
2021/12/29 09:38:36;;;;;;;116.00;81.63;;;154.10;2252.80;;;;;;6190880;23;20415;-83
2021/12/29 09:41:08;;;;;;;149.43;111.72;;;154.10;2252.80;;;;;;6216946;23;20055;-84
2021/12/29 09:43:35;;;;;;;117.22;78.38;;;154.10;2252.80;;;;;;6190376;23;20078;-83
2021/12/29 09:46:08;;;;;;;146.85;103.45;;;154.20;2252.80;;;;;;6190348;23;20001;-83
2021/12/29 09:48:36;;;;;;;134.70;94.40;;;154.20;2252.80;;;;;;6190589;23;20005;-82
2021/12/29 09:51:03;;;;;;;123.30;86.85;;;154.30;2252.80;;;;;;6190178;23;20000;-83
2021/12/29 09:53:29;;;;;;;116.70;78.88;;;154.30;2252.80;;;;;;6189761;23;20051;-84
2021/12/29 09:56:16;;;;;;;155.88;111.13;;;154.30;2252.80;;;;;;6190837;23;20315;-84
2021/12/29 09:58:52;;;;;;;127.53;85.70;;;154.40;2252.80;;;;;;6190077;23;20362;-81
2021/12/29 10:01:21;;;;;;;173.75;122.57;;;154.40;2252.80;;;;;;6189733;23;19996;-81
2021/12/29 10:03:47;;;;;;;94.57;63.00;;;154.30;2252.80;;;;;;6189920;23;20001;-83
2021/12/29 10:06:14;;;;;;;127.60;89.20;;;154.40;2252.80;;;;;;6190538;23;19999;-84
2021/12/29 10:08:43;;;;;;;113.07;78.75;;;154.40;2252.80;;;;;;6190223;23;20000;-82
2021/12/29 10:11:15;;;;;;;156.32;113.32;;;154.50;2252.80;;;;;;6190097;23;20004;-81
2021/12/29 10:13:45;;;;;;;113.32;83.82;;;154.50;2252.80;;;;;;6190293;23;20069;-83
2021/12/29 10:16:18;;;;;;;103.35;71.22;;;154.50;2252.80;;;;;;6216341;23;19989;-83
2021/12/29 10:18:48;;;;;;;;;;;154.50;2252.80;;;;;;6190784;23;20000;-83
2021/12/29 10:21:17;;;;;;;118.13;75.95;;;179.20;2252.80;;;;;;6189721;23;19899;-82
2021/12/29 10:24:22;;;;;;;95.25;63.42;;;154.50;2252.80;;;;;;6189952;23;20037;-80
2021/12/29 10:26:49;;;;;;;119.28;77.15;;;154.50;2252.80;;;;;;6189586;23;20008;-82
2021/12/29 10:29:20;;;;;;;121.53;79.20;;;179.20;2252.80;;;;;;6189153;23;20095;-82
2021/12/29 10:31:50;;;;;;;105.38;72.03;;;179.30;2252.80;;;;;;6189728;23;20001;-79
2021/12/29 10:34:23;;;;;;;115.55;74.30;;;179.40;2252.80;;;;;;6189654;23;20000;-81
2021/12/29 10:36:54;;;;;;;131.38;87.22;;;179.40;2252.80;;;;;;6189222;23;20000;-82
2021/12/29 10:39:24;;;;;;;113.72;84.38;;;179.50;2252.80;;;;;;6189917;23;20414;-81
2021/12/29 10:42:03;;;;;;;92.10;65.38;;;179.50;2252.80;;;;;;6189636;23;20433;-82
2021/12/29 10:44:35;;;;;;;110.13;78.05;;;179.60;2252.80;;;;;;6189333;23;20084;-81
2021/12/29 10:47:13;;;;;;;98.93;66.23;;;179.60;2252.80;;;;;;6190025;23;20001;-82
2021/12/29 10:49:57;;;;;;;111.72;76.05;;;179.60;2252.80;;;;;;6189347;23;20004;-79
2021/12/29 10:52:29;;;;;;;93.22;67.50;;;179.60;2252.80;;;;;;6189706;23;20013;-80
2021/12/29 10:54:55;;;;;;;88.80;57.90;;;179.70;2252.80;;;;;;6216344;23;20016;-84
2021/12/29 10:57:20;;;;;;;81.72;57.42;;;179.70;2252.80;;;;;;6189622;23;20000;-80
2021/12/29 10:59:55;;;;;;;96.97;65.65;;;179.70;2252.80;;;;;;6189735;23;20425;-82
2021/12/29 11:02:26;;;;;;;91.88;61.30;;;179.70;2252.80;;;;;;6190038;23;20005;-84
2021/12/29 11:05:05;;;;;;;93.67;61.37;;;179.80;2252.80;;;;;;6189451;23;19997;-84
2021/12/29 11:07:32;;;;;;;107.65;69.03;;;179.90;2252.80;;;;;;6189888;23;20003;-85
2021/12/29 11:10:16;;;;;;;101.70;67.03;;;179.90;2252.80;;;;;;6189356;23;20468;-84
2021/12/29 11:13:05;;;;;;;109.70;71.05;;;179.90;2252.80;;;;;;6189789;23;20009;-84
2021/12/29 11:15:39;;;;;;;122.75;78.95;;;179.90;2252.80;;;;;;6215908;23;20355;-82
2021/12/29 11:18:09;;;;;;;125.00;82.43;;;180.00;2252.80;;;;;;6189534;23;20391;-80
2021/12/29 11:20:57;;;;;;;106.43;73.60;;;180.10;2252.80;;;;;;6189894;23;20028;-85
2021/12/29 11:23:23;;;;;;;109.40;74.45;;;180.10;2252.80;;;;;;6189600;23;20000;-84
2021/12/29 11:25:51;;;;;;;100.28;69.35;;;204.80;2252.80;;;;;;6189486;23;20362;-84
2021/12/29 11:28:29;;;;;;;119.90;82.53;;;180.10;2252.80;;;;;;6189566;23;19993;-83
2021/12/29 11:30:58;;;;;;;160.23;108.10;;;180.10;2252.80;;;;;;6189217;23;20364;-82
2021/12/29 11:33:24;;;;;;;100.32;74.38;;;204.80;2252.80;;;;;;6189434;23;20003;-82
2021/12/29 11:35:53;;;;;;;116.90;86.35;;;204.80;2252.80;;;;;;6189544;23;20075;-82
2021/12/29 11:38:27;;;;;;;114.35;82.80;;;204.90;2252.80;;;;;;6189252;23;19997;-84
2021/12/29 11:40:59;;;;;;;101.25;75.15;;;204.90;2252.80;;;;;;6189891;23;20005;-81
2021/12/29 11:43:25;;;;;;;;;;;205.00;2252.80;;;;;;6216642;23;20004;-81
2021/12/29 11:45:53;;;;;;;82.43;59.88;;;204.90;2252.80;;;;;;6189413;23;19895;-84
2021/12/29 11:48:21;;;;;;;146.23;101.25;;;204.80;2252.80;;;;;;6217857;23;20039;-84
2021/12/29 11:50:49;;;;;;;141.40;102.20;;;204.80;2252.80;;;;;;6190856;23;20394;-82
2021/12/29 11:53:30;;;;;;;90.93;67.85;;;204.80;2252.80;;;;;;6190771;23;20058;-84
2021/12/29 11:56:01;;;;;;;101.93;72.82;;;180.10;2252.80;;;;;;6190824;23;20332;-82
2021/12/29 11:58:41;;;;;;;97.25;70.60;;;180.10;2252.80;;;;;;6217504;23;20008;-79
2021/12/29 12:01:10;;;;;;;93.95;68.43;;;204.80;2252.80;;;;;;6215101;23;20012;-82
2021/12/29 12:03:40;;;;;;;81.25;60.17;;;204.80;2252.80;;;;;;6190836;23;20307;-81
2021/12/29 12:06:06;;;;;;;77.35;54.00;;;180.10;2252.80;;;;;;6190715;23;20303;-82